Irun, Spain
Current Conditions -  °F | °C
As of 9:00 PM on Monday 24 Nov 2014 (Local Time) from LESO Reporting Station
Broken Clouds Broken Clouds  
Wind Chill: 61°   Ceiling: 1800
Heat Index: 61°   Visibility: 6mi
Dew Point: 57°   Wind: 2mph
Humidity: 88%   Direction: NA
Pressure: 30.12"   Gusts: NA
Location:  43.34°N, 1.79°W
Report Text: LESO 242000Z VRB02KT 9999 FEW007 SCT012 BKN018 16/14 Q1020
Loading
Personal Weather Stations






























Interactive Weather Map New forecast layout! Learn more

10-Day Weather Forecast

Advertisements
Track Severe Weather on mobile